Minneapolis-St Paul International/Wold-Chamberlain Airport
KMSP : now visible

Airfield :











YOU CAN JOIN US ON...

 
LOGIN :

Register | Disclaimer

   EN    FR    IT 

 









Legend :    VFR   Marginal VFR   IFR   Intensive IFR   Very Intensive IFR
Visi :
Ceiling :
>= 8 km
>= 3000ft
5 to 8 km
1000 to 3000 ft
1500m to 5 km
500 to 1000 ft
800 to 1500m
200 to 500 ft
< 800m
< 200 ft
Symbols :   Thunderstorms  Fog  Heavy snow  Heavy precipitations  Wind > 20 kt






- Airport Elevation : 841 ft
- IATA code : MSP


KMSP - Minneapolis-St Paul International/Wold-Chamberlain

CURRENT METAR :
  • 030153Z 16014G23KT 10SM OVC050 16/06 A2990 RMK AO2 SLP127 T01560056 $

EXPIRED METARs :
  • 030053Z 13008KT 10SM OVC055 15/07 A2989 RMK AO2 SLP124 T01500067 $
  • 022353Z 15005KT 10SM OVC047 15/07 A2990 RMK AO2 SLP128 T01500067 10161 20128 55003 $

TAF KMSP
Valid from the 03 at 00:00 until the 04 at 06:00 UTC


022339Z 0300/0406 14007KT 6SM -SHRA OVC040
FM030300 28008KT 4SM -RA BR OVC020
FM030600 30010KT 4SM -RA BR OVC008
FM031400 31012G20KT 3SM -FZRAPL BR OVC012
FM031800 30013G21KT 5SM -SN OVC012
FM032100 30012G20KT P6SM BKN020
FM040000 31008KT P6SM SCT035



MET'MAP, your aeronautical weather chart ! - Copyright ORBIFLY December 2007 - Disclaimer

ORBIFLY MET'MAP TEAM :

Programming & Development : Alexandra Zaïnal
Concept & original design : Baudouin d'Aumeries
Assistance for programming : Marc-Olivier Méhu
Technical & hardware support : Manuel Goepfert

Contact : metmap@orbifly.com




SOURCES & CREDITS :

   NOAA       Earth
Advisory